sensor_id;sensor_type;location;lat;lon;timestamp;temperature;humidity
38866;DHT22;62686;48.984;8.394;2023-07-28T00:01:48;18.90;99.90
38866;DHT22;62686;48.984;8.394;2023-07-28T00:04:17;18.90;99.90
38866;DHT22;62686;48.984;8.394;2023-07-28T00:06:47;18.90;99.90
38866;DHT22;62686;48.984;8.394;2023-07-28T00:09:15;18.90;99.90
38866;DHT22;62686;48.984;8.394;2023-07-28T00:11:43;18.90;99.90
38866;DHT22;62686;48.984;8.394;2023-07-28T00:14:12;18.80;99.90
38866;DHT22;62686;48.984;8.394;2023-07-28T00:16:40;18.80;99.90
38866;DHT22;62686;48.984;8.394;2023-07-28T00:19:08;18.80;99.90
38866;DHT22;62686;48.984;8.394;2023-07-28T00:21:36;18.80;99.90
38866;DHT22;62686;48.984;8.394;2023-07-28T00:24:06;18.80;99.90
38866;DHT22;62686;48.984;8.394;2023-07-28T00:26:34;18.80;99.90
38866;DHT22;62686;48.984;8.394;2023-07-28T00:29:03;18.80;99.90
38866;DHT22;62686;48.984;8.394;2023-07-28T00:31:33;18.80;99.90
38866;DHT22;62686;48.984;8.394;2023-07-28T00:34:02;18.80;99.90
38866;DHT22;62686;48.984;8.394;2023-07-28T00:36:31;18.80;99.90
38866;DHT22;62686;48.984;8.394;2023-07-28T00:39:00;18.80;99.90
38866;DHT22;62686;48.984;8.394;2023-07-28T00:41:30;18.70;99.90
38866;DHT22;62686;48.984;8.394;2023-07-28T00:43:58;18.60;99.90
38866;DHT22;62686;48.984;8.394;2023-07-28T00:46:26;18.50;99.90
38866;DHT22;62686;48.984;8.394;2023-07-28T00:48:55;18.40;99.90
38866;DHT22;62686;48.984;8.394;2023-07-28T00:51:23;18.30;99.90
38866;DHT22;62686;48.984;8.394;2023-07-28T00:53:52;18.20;99.90
38866;DHT22;62686;48.984;8.394;2023-07-28T00:56:21;18.20;99.90
38866;DHT22;62686;48.984;8.394;2023-07-28T00:58:51;18.20;99.90
38866;DHT22;62686;48.984;8.394;2023-07-28T01:01:19;18.20;99.90
38866;DHT22;62686;48.984;8.394;2023-07-28T01:03:48;18.30;99.90
38866;DHT22;62686;48.984;8.394;2023-07-28T01:06:20;18.30;99.90
38866;DHT22;62686;48.984;8.394;2023-07-28T01:08:56;18.30;99.90
38866;DHT22;62686;48.984;8.394;2023-07-28T01:11:26;18.20;99.90
38866;DHT22;62686;48.984;8.394;2023-07-28T01:13:56;18.20;99.90
38866;DHT22;62686;48.984;8.394;2023-07-28T01:16:27;18.10;99.90
38866;DHT22;62686;48.984;8.394;2023-07-28T01:18:55;18.10;99.90
38866;DHT22;62686;48.984;8.394;2023-07-28T01:21:28;18.10;99.90
38866;DHT22;62686;48.984;8.394;2023-07-28T01:24:14;18.10;99.90
38866;DHT22;62686;48.984;8.394;2023-07-28T01:26:45;18.00;99.90
38866;DHT22;62686;48.984;8.394;2023-07-28T01:29:14;18.00;99.90
38866;DHT22;62686;48.984;8.394;2023-07-28T01:31:46;18.00;99.90
38866;DHT22;62686;48.984;8.394;2023-07-28T01:34:14;18.10;99.90
38866;DHT22;62686;48.984;8.394;2023-07-28T01:36:42;18.00;99.90
38866;DHT22;62686;48.984;8.394;2023-07-28T01:39:11;17.90;99.90
38866;DHT22;62686;48.984;8.394;2023-07-28T01:41:39;17.90;99.90
38866;DHT22;62686;48.984;8.394;2023-07-28T01:44:12;17.80;99.90
38866;DHT22;62686;48.984;8.394;2023-07-28T01:49:22;17.80;99.90
38866;DHT22;62686;48.984;8.394;2023-07-28T01:51:52;17.90;99.90
38866;DHT22;62686;48.984;8.394;2023-07-28T01:54:21;17.90;99.90
38866;DHT22;62686;48.984;8.394;2023-07-28T01:56:49;17.90;99.90
38866;DHT22;62686;48.984;8.394;2023-07-28T01:59:19;17.80;99.90
38866;DHT22;62686;48.984;8.394;2023-07-28T02:01:48;17.80;99.90
38866;DHT22;62686;48.984;8.394;2023-07-28T02:04:16;17.70;99.90
38866;DHT22;62686;48.984;8.394;2023-07-28T02:06:45;17.70;99.90
38866;DHT22;62686;48.984;8.394;2023-07-28T02:09:13;17.60;99.90
38866;DHT22;62686;48.984;8.394;2023-07-28T02:11:41;17.60;99.90
38866;DHT22;62686;48.984;8.394;2023-07-28T02:14:09;17.60;99.90
38866;DHT22;62686;48.984;8.394;2023-07-28T02:16:39;17.60;99.90
38866;DHT22;62686;48.984;8.394;2023-07-28T02:19:08;17.60;99.90
38866;DHT22;62686;48.984;8.394;2023-07-28T02:21:36;17.60;99.90
38866;DHT22;62686;48.984;8.394;2023-07-28T02:24:04;17.60;99.90
38866;DHT22;62686;48.984;8.394;2023-07-28T02:26:33;17.60;99.90
38866;DHT22;62686;48.984;8.394;2023-07-28T02:29:01;17.60;99.90
38866;DHT22;62686;48.984;8.394;2023-07-28T02:31:29;17.50;99.90
38866;DHT22;62686;48.984;8.394;2023-07-28T02:33:59;17.50;99.90
38866;DHT22;62686;48.984;8.394;2023-07-28T02:36:27;17.50;99.90
38866;DHT22;62686;48.984;8.394;2023-07-28T02:38:56;17.50;99.90
38866;DHT22;62686;48.984;8.394;2023-07-28T02:41:24;17.50;99.90
38866;DHT22;62686;48.984;8.394;2023-07-28T02:43:52;17.50;99.90
38866;DHT22;62686;48.984;8.394;2023-07-28T02:46:21;17.50;99.90
38866;DHT22;62686;48.984;8.394;2023-07-28T02:48:50;17.60;99.90
38866;DHT22;62686;48.984;8.394;2023-07-28T02:51:19;17.50;99.90
38866;DHT22;62686;48.984;8.394;2023-07-28T02:53:48;17.60;99.90
38866;DHT22;62686;48.984;8.394;2023-07-28T02:56:16;17.50;99.90
38866;DHT22;62686;48.984;8.394;2023-07-28T02:58:44;17.60;99.90
38866;DHT22;62686;48.984;8.394;2023-07-28T03:01:12;17.60;99.90
38866;DHT22;62686;48.984;8.394;2023-07-28T03:03:41;17.70;99.90
38866;DHT22;62686;48.984;8.394;2023-07-28T03:06:09;17.70;99.90
38866;DHT22;62686;48.984;8.394;2023-07-28T03:08:39;17.70;99.90
38866;DHT22;62686;48.984;8.394;2023-07-28T03:11:07;17.70;99.90
38866;DHT22;62686;48.984;8.394;2023-07-28T03:13:35;17.70;99.90
38866;DHT22;62686;48.984;8.394;2023-07-28T03:16:04;17.80;99.90
38866;DHT22;62686;48.984;8.394;2023-07-28T03:18:32;17.80;99.90
38866;DHT22;62686;48.984;8.394;2023-07-28T03:21:00;17.70;99.90
38866;DHT22;62686;48.984;8.394;2023-07-28T03:23:29;17.80;99.90
38866;DHT22;62686;48.984;8.394;2023-07-28T03:25:58;17.80;99.90
38866;DHT22;62686;48.984;8.394;2023-07-28T04:03:28;17.30;99.90
38866;DHT22;62686;48.984;8.394;2023-07-28T04:05:56;17.30;99.90
38866;DHT22;62686;48.984;8.394;2023-07-28T04:08:24;17.30;99.90
38866;DHT22;62686;48.984;8.394;2023-07-28T04:10:53;17.30;99.90
38866;DHT22;62686;48.984;8.394;2023-07-28T04:13:21;17.30;99.90
38866;DHT22;62686;48.984;8.394;2023-07-28T04:15:49;17.30;99.90
38866;DHT22;62686;48.984;8.394;2023-07-28T04:18:18;17.30;99.90
38866;DHT22;62686;48.984;8.394;2023-07-28T04:20:49;17.30;99.90
38866;DHT22;62686;48.984;8.394;2023-07-28T04:23:17;17.30;99.90
38866;DHT22;62686;48.984;8.394;2023-07-28T04:25:46;17.30;99.90
38866;DHT22;62686;48.984;8.394;2023-07-28T04:45:18;17.40;99.90
38866;DHT22;62686;48.984;8.394;2023-07-28T04:47:48;17.40;99.90
38866;DHT22;62686;48.984;8.394;2023-07-28T04:50:26;17.40;99.90
38866;DHT22;62686;48.984;8.394;2023-07-28T04:52:55;17.50;99.90
38866;DHT22;62686;48.984;8.394;2023-07-28T04:55:23;17.50;99.90
38866;DHT22;62686;48.984;8.394;2023-07-28T04:57:54;17.50;99.90
38866;DHT22;62686;48.984;8.394;2023-07-28T05:00:24;17.50;99.90
38866;DHT22;62686;48.984;8.394;2023-07-28T05:02:52;17.50;99.90
38866;DHT22;62686;48.984;8.394;2023-07-28T05:05:20;17.50;99.90
38866;DHT22;62686;48.984;8.394;2023-07-28T05:07:49;17.50;99.90
38866;DHT22;62686;48.984;8.394;2023-07-28T05:10:17;17.60;99.90
38866;DHT22;62686;48.984;8.394;2023-07-28T05:12:45;17.60;99.90
38866;DHT22;62686;48.984;8.394;2023-07-28T05:15:14;17.70;99.90
38866;DHT22;62686;48.984;8.394;2023-07-28T05:17:44;17.70;99.90
38866;DHT22;62686;48.984;8.394;2023-07-28T05:20:12;17.70;99.90
38866;DHT22;62686;48.984;8.394;2023-07-28T05:22:41;17.70;99.90
38866;DHT22;62686;48.984;8.394;2023-07-28T05:25:09;17.80;99.90
38866;DHT22;62686;48.984;8.394;2023-07-28T05:27:38;17.80;99.90
38866;DHT22;62686;48.984;8.394;2023-07-28T05:30:07;17.90;99.90
38866;DHT22;62686;48.984;8.394;2023-07-28T05:32:35;17.80;99.90
38866;DHT22;62686;48.984;8.394;2023-07-28T05:35:06;17.90;99.90
38866;DHT22;62686;48.984;8.394;2023-07-28T05:37:34;17.80;99.90
38866;DHT22;62686;48.984;8.394;2023-07-28T05:40:03;17.80;99.90
38866;DHT22;62686;48.984;8.394;2023-07-28T05:42:32;17.80;99.90
38866;DHT22;62686;48.984;8.394;2023-07-28T05:45:00;17.80;99.90
38866;DHT22;62686;48.984;8.394;2023-07-28T05:47:28;17.90;99.90
38866;DHT22;62686;48.984;8.394;2023-07-28T05:49:57;17.90;99.90
38866;DHT22;62686;48.984;8.394;2023-07-28T05:52:26;18.00;99.90
38866;DHT22;62686;48.984;8.394;2023-07-28T05:54:54;18.00;99.90
38866;DHT22;62686;48.984;8.394;2023-07-28T05:57:23;18.00;99.90
38866;DHT22;62686;48.984;8.394;2023-07-28T05:59:51;18.00;99.90
38866;DHT22;62686;48.984;8.394;2023-07-28T06:02:19;18.00;99.90
38866;DHT22;62686;48.984;8.394;2023-07-28T06:04:48;17.90;99.90
38866;DHT22;62686;48.984;8.394;2023-07-28T06:07:16;18.00;99.90
38866;DHT22;62686;48.984;8.394;2023-07-28T06:09:45;18.00;99.90
38866;DHT22;62686;48.984;8.394;2023-07-28T06:12:14;18.00;99.90
38866;DHT22;62686;48.984;8.394;2023-07-28T06:14:43;18.00;99.90
38866;DHT22;62686;48.984;8.394;2023-07-28T06:17:11;17.90;99.90
38866;DHT22;62686;48.984;8.394;2023-07-28T06:19:39;17.90;99.90
38866;DHT22;62686;48.984;8.394;2023-07-28T06:22:07;17.90;99.90
38866;DHT22;62686;48.984;8.394;2023-07-28T06:24:36;17.90;99.90
38866;DHT22;62686;48.984;8.394;2023-07-28T06:27:06;18.00;99.90
38866;DHT22;62686;48.984;8.394;2023-07-28T06:29:35;18.00;99.90
38866;DHT22;62686;48.984;8.394;2023-07-28T06:32:04;18.00;99.90
38866;DHT22;62686;48.984;8.394;2023-07-28T06:34:33;18.00;99.90
38866;DHT22;62686;48.984;8.394;2023-07-28T06:37:01;17.90;99.90
38866;DHT22;62686;48.984;8.394;2023-07-28T06:39:30;17.90;99.90
38866;DHT22;62686;48.984;8.394;2023-07-28T06:41:58;17.90;99.90
38866;DHT22;62686;48.984;8.394;2023-07-28T06:44:28;17.90;99.90
38866;DHT22;62686;48.984;8.394;2023-07-28T06:46:57;18.00;99.90
38866;DHT22;62686;48.984;8.394;2023-07-28T06:49:25;18.00;99.90
38866;DHT22;62686;48.984;8.394;2023-07-28T06:51:53;18.00;99.90
38866;DHT22;62686;48.984;8.394;2023-07-28T06:54:22;18.10;99.90
38866;DHT22;62686;48.984;8.394;2023-07-28T06:56:51;18.10;99.90
38866;DHT22;62686;48.984;8.394;2023-07-28T06:59:20;18.20;99.90
38866;DHT22;62686;48.984;8.394;2023-07-28T07:01:49;18.20;99.90
38866;DHT22;62686;48.984;8.394;2023-07-28T07:04:19;18.40;99.90
38866;DHT22;62686;48.984;8.394;2023-07-28T07:06:49;18.50;99.90
38866;DHT22;62686;48.984;8.394;2023-07-28T07:09:17;18.60;99.90
38866;DHT22;62686;48.984;8.394;2023-07-28T07:11:45;18.70;99.90
38866;DHT22;62686;48.984;8.394;2023-07-28T07:14:14;18.80;99.90
38866;DHT22;62686;48.984;8.394;2023-07-28T07:16:42;18.80;99.90
38866;DHT22;62686;48.984;8.394;2023-07-28T07:19:12;18.80;99.90
38866;DHT22;62686;48.984;8.394;2023-07-28T07:21:42;18.90;99.90
38866;DHT22;62686;48.984;8.394;2023-07-28T07:24:11;19.10;99.90
38866;DHT22;62686;48.984;8.394;2023-07-28T07:26:40;19.30;99.90
38866;DHT22;62686;48.984;8.394;2023-07-28T07:29:09;19.30;99.90
38866;DHT22;62686;48.984;8.394;2023-07-28T07:31:37;19.30;99.90
38866;DHT22;62686;48.984;8.394;2023-07-28T07:34:06;19.30;99.90
38866;DHT22;62686;48.984;8.394;2023-07-28T07:36:36;19.20;99.90
38866;DHT22;62686;48.984;8.394;2023-07-28T07:39:05;19.30;99.90
38866;DHT22;62686;48.984;8.394;2023-07-28T07:41:33;19.40;99.90
38866;DHT22;62686;48.984;8.394;2023-07-28T07:44:04;19.40;99.90
38866;DHT22;62686;48.984;8.394;2023-07-28T07:46:32;19.50;99.90
38866;DHT22;62686;48.984;8.394;2023-07-28T07:51:37;19.70;99.90
38866;DHT22;62686;48.984;8.394;2023-07-28T07:54:06;19.90;99.90
38866;DHT22;62686;48.984;8.394;2023-07-28T07:56:34;20.00;99.90
38866;DHT22;62686;48.984;8.394;2023-07-28T07:59:02;20.30;99.90
38866;DHT22;62686;48.984;8.394;2023-07-28T08:01:32;20.70;99.90
38866;DHT22;62686;48.984;8.394;2023-07-28T08:04:01;21.20;99.90
38866;DHT22;62686;48.984;8.394;2023-07-28T08:06:29;21.80;99.90
38866;DHT22;62686;48.984;8.394;2023-07-28T08:08:59;22.10;99.90
38866;DHT22;62686;48.984;8.394;2023-07-28T08:11:28;22.50;99.90
38866;DHT22;62686;48.984;8.394;2023-07-28T08:13:56;22.60;99.90
38866;DHT22;62686;48.984;8.394;2023-07-28T08:16:25;24.00;99.90
38866;DHT22;62686;48.984;8.394;2023-07-28T08:18:53;24.80;99.90
38866;DHT22;62686;48.984;8.394;2023-07-28T08:21:21;25.30;99.90
38866;DHT22;62686;48.984;8.394;2023-07-28T08:23:50;25.40;99.90
38866;DHT22;62686;48.984;8.394;2023-07-28T08:26:20;25.70;99.90
38866;DHT22;62686;48.984;8.394;2023-07-28T08:28:48;27.10;99.90
38866;DHT22;62686;48.984;8.394;2023-07-28T08:31:16;27.80;99.90
38866;DHT22;62686;48.984;8.394;2023-07-28T08:33:44;27.30;99.90
38866;DHT22;62686;48.984;8.394;2023-07-28T08:36:13;27.30;99.90
38866;DHT22;62686;48.984;8.394;2023-07-28T08:38:41;27.90;99.90
38866;DHT22;62686;48.984;8.394;2023-07-28T08:41:09;27.90;99.90
38866;DHT22;62686;48.984;8.394;2023-07-28T08:43:41;27.70;99.90
38866;DHT22;62686;48.984;8.394;2023-07-28T08:46:09;28.10;99.90
38866;DHT22;62686;48.984;8.394;2023-07-28T08:48:38;27.50;99.90
38866;DHT22;62686;48.984;8.394;2023-07-28T08:51:06;26.20;99.90
38866;DHT22;62686;48.984;8.394;2023-07-28T08:53:35;26.00;99.90
38866;DHT22;62686;48.984;8.394;2023-07-28T08:56:04;25.70;99.90
38866;DHT22;62686;48.984;8.394;2023-07-28T08:58:33;26.10;99.90
38866;DHT22;62686;48.984;8.394;2023-07-28T09:01:03;27.10;99.90
38866;DHT22;62686;48.984;8.394;2023-07-28T09:03:31;28.10;99.90
38866;DHT22;62686;48.984;8.394;2023-07-28T09:06:01;29.20;99.90
38866;DHT22;62686;48.984;8.394;2023-07-28T09:13:54;29.00;99.90
38866;DHT22;62686;48.984;8.394;2023-07-28T09:16:24;29.20;99.90
38866;DHT22;62686;48.984;8.394;2023-07-28T09:19:04;29.10;99.90
38866;DHT22;62686;48.984;8.394;2023-07-28T09:21:32;29.40;99.90
38866;DHT22;62686;48.984;8.394;2023-07-28T09:24:03;29.70;99.90
38866;DHT22;62686;48.984;8.394;2023-07-28T09:29:12;30.50;99.90
38866;DHT22;62686;48.984;8.394;2023-07-28T09:31:42;30.70;99.90
38866;DHT22;62686;48.984;8.394;2023-07-28T09:34:12;31.40;99.90
38866;DHT22;62686;48.984;8.394;2023-07-28T09:36:42;32.30;99.90
38866;DHT22;62686;48.984;8.394;2023-07-28T09:39:10;32.90;99.90
38866;DHT22;62686;48.984;8.394;2023-07-28T09:41:39;33.40;99.90
38866;DHT22;62686;48.984;8.394;2023-07-28T09:44:07;32.30;99.90
38866;DHT22;62686;48.984;8.394;2023-07-28T09:46:35;30.40;99.90
38866;DHT22;62686;48.984;8.394;2023-07-28T09:49:13;29.10;99.90
38866;DHT22;62686;48.984;8.394;2023-07-28T09:51:48;28.30;99.90
38866;DHT22;62686;48.984;8.394;2023-07-28T09:54:20;28.00;99.90
38866;DHT22;62686;48.984;8.394;2023-07-28T09:57:04;27.60;99.90
38866;DHT22;62686;48.984;8.394;2023-07-28T09:59:38;27.70;99.90
38866;DHT22;62686;48.984;8.394;2023-07-28T10:02:07;27.60;99.90
38866;DHT22;62686;48.984;8.394;2023-07-28T10:04:38;27.50;99.90
38866;DHT22;62686;48.984;8.394;2023-07-28T10:07:08;27.30;99.90
38866;DHT22;62686;48.984;8.394;2023-07-28T10:09:37;26.80;99.90
38866;DHT22;62686;48.984;8.394;2023-07-28T10:12:17;26.50;99.90
38866;DHT22;62686;48.984;8.394;2023-07-28T10:14:45;26.30;99.90
38866;DHT22;62686;48.984;8.394;2023-07-28T10:17:15;25.70;99.90
38866;DHT22;62686;48.984;8.394;2023-07-28T10:19:46;25.10;99.90
38866;DHT22;62686;48.984;8.394;2023-07-28T10:22:14;24.90;99.90
38866;DHT22;62686;48.984;8.394;2023-07-28T10:24:53;24.80;99.90
38866;DHT22;62686;48.984;8.394;2023-07-28T10:27:30;24.50;99.90
38866;DHT22;62686;48.984;8.394;2023-07-28T10:29:59;24.10;99.90
38866;DHT22;62686;48.984;8.394;2023-07-28T10:32:28;24.20;99.90
38866;DHT22;62686;48.984;8.394;2023-07-28T10:35:02;24.60;99.90
38866;DHT22;62686;48.984;8.394;2023-07-28T10:37:34;25.10;99.90
38866;DHT22;62686;48.984;8.394;2023-07-28T10:40:22;25.50;99.90
38866;DHT22;62686;48.984;8.394;2023-07-28T10:42:51;25.80;99.90
38866;DHT22;62686;48.984;8.394;2023-07-28T10:45:23;26.30;99.90
38866;DHT22;62686;48.984;8.394;2023-07-28T10:47:52;26.20;99.90
38866;DHT22;62686;48.984;8.394;2023-07-28T10:50:23;26.00;99.90
38866;DHT22;62686;48.984;8.394;2023-07-28T10:52:58;26.30;99.90
38866;DHT22;62686;48.984;8.394;2023-07-28T10:55:44;26.50;99.90
38866;DHT22;62686;48.984;8.394;2023-07-28T10:58:24;26.30;99.90
38866;DHT22;62686;48.984;8.394;2023-07-28T11:00:56;26.20;99.90
38866;DHT22;62686;48.984;8.394;2023-07-28T11:03:53;25.60;99.90
38866;DHT22;62686;48.984;8.394;2023-07-28T11:06:24;25.70;99.90
38866;DHT22;62686;48.984;8.394;2023-07-28T11:11:26;25.90;99.90
38866;DHT22;62686;48.984;8.394;2023-07-28T11:14:04;25.70;99.90
38866;DHT22;62686;48.984;8.394;2023-07-28T11:17:41;25.70;99.90
38866;DHT22;62686;48.984;8.394;2023-07-28T11:20:15;25.20;99.90
38866;DHT22;62686;48.984;8.394;2023-07-28T11:22:51;25.20;99.90
38866;DHT22;62686;48.984;8.394;2023-07-28T11:25:30;25.10;99.90
38866;DHT22;62686;48.984;8.394;2023-07-28T11:28:03;25.10;99.90
38866;DHT22;62686;48.984;8.394;2023-07-28T11:30:36;25.30;99.90
38866;DHT22;62686;48.984;8.394;2023-07-28T11:36:55;25.10;99.90
38866;DHT22;62686;48.984;8.394;2023-07-28T11:39:31;24.00;99.90
38866;DHT22;62686;48.984;8.394;2023-07-28T11:42:11;23.40;99.90
38866;DHT22;62686;48.984;8.394;2023-07-28T11:45:17;23.00;99.90
38866;DHT22;62686;48.984;8.394;2023-07-28T11:47:57;22.50;99.90
38866;DHT22;62686;48.984;8.394;2023-07-28T11:50:54;22.20;99.90
38866;DHT22;62686;48.984;8.394;2023-07-28T11:53:40;21.90;99.90
38866;DHT22;62686;48.984;8.394;2023-07-28T11:56:27;21.90;99.90
38866;DHT22;62686;48.984;8.394;2023-07-28T11:58:58;22.00;99.90
38866;DHT22;62686;48.984;8.394;2023-07-28T12:01:27;22.20;99.90
38866;DHT22;62686;48.984;8.394;2023-07-28T12:04:22;22.40;99.90
38866;DHT22;62686;48.984;8.394;2023-07-28T12:07:07;22.60;99.90
38866;DHT22;62686;48.984;8.394;2023-07-28T12:09:51;22.90;99.90
38866;DHT22;62686;48.984;8.394;2023-07-28T12:12:51;23.10;99.90
38866;DHT22;62686;48.984;8.394;2023-07-28T12:15:25;22.90;99.90
38866;DHT22;62686;48.984;8.394;2023-07-28T12:18:06;22.90;99.90
38866;DHT22;62686;48.984;8.394;2023-07-28T12:20:40;22.50;99.90
38866;DHT22;62686;48.984;8.394;2023-07-28T12:23:36;22.20;99.90
38866;DHT22;62686;48.984;8.394;2023-07-28T12:26:36;21.90;99.90
38866;DHT22;62686;48.984;8.394;2023-07-28T12:29:15;21.60;99.90
38866;DHT22;62686;48.984;8.394;2023-07-28T12:34:48;21.20;99.90
38866;DHT22;62686;48.984;8.394;2023-07-28T12:37:17;21.10;99.90
38866;DHT22;62686;48.984;8.394;2023-07-28T12:51:46;20.80;99.90
38866;DHT22;62686;48.984;8.394;2023-07-28T12:54:32;20.80;99.90
38866;DHT22;62686;48.984;8.394;2023-07-28T12:57:25;20.70;99.90
38866;DHT22;62686;48.984;8.394;2023-07-28T12:59:53;20.60;99.90
38866;DHT22;62686;48.984;8.394;2023-07-28T13:02:25;20.50;99.90
38866;DHT22;62686;48.984;8.394;2023-07-28T13:05:02;20.50;99.90
38866;DHT22;62686;48.984;8.394;2023-07-28T13:07:35;20.40;99.90
38866;DHT22;62686;48.984;8.394;2023-07-28T13:10:08;20.50;99.90
38866;DHT22;62686;48.984;8.394;2023-07-28T13:12:57;20.50;99.90
38866;DHT22;62686;48.984;8.394;2023-07-28T13:15:26;20.50;99.90
38866;DHT22;62686;48.984;8.394;2023-07-28T13:17:54;20.60;99.90
38866;DHT22;62686;48.984;8.394;2023-07-28T13:20:22;20.60;99.90
38866;DHT22;62686;48.984;8.394;2023-07-28T13:22:54;20.60;99.90
38866;DHT22;62686;48.984;8.394;2023-07-28T13:25:23;20.50;99.90
38866;DHT22;62686;48.984;8.394;2023-07-28T13:27:51;20.40;99.90
38866;DHT22;62686;48.984;8.394;2023-07-28T13:30:19;20.40;99.90
38866;DHT22;62686;48.984;8.394;2023-07-28T13:32:48;20.40;99.90
38866;DHT22;62686;48.984;8.394;2023-07-28T13:35:16;20.30;99.90
38866;DHT22;62686;48.984;8.394;2023-07-28T13:37:45;20.30;99.90
38866;DHT22;62686;48.984;8.394;2023-07-28T13:40:15;20.30;99.90
38866;DHT22;62686;48.984;8.394;2023-07-28T13:42:43;20.40;99.90
38866;DHT22;62686;48.984;8.394;2023-07-28T13:45:15;20.50;99.90
38866;DHT22;62686;48.984;8.394;2023-07-28T13:47:43;20.50;99.90
38866;DHT22;62686;48.984;8.394;2023-07-28T13:50:12;20.50;99.90
38866;DHT22;62686;48.984;8.394;2023-07-28T13:52:40;20.50;99.90
38866;DHT22;62686;48.984;8.394;2023-07-28T13:55:08;20.60;99.90
38866;DHT22;62686;48.984;8.394;2023-07-28T13:57:41;20.60;99.90
38866;DHT22;62686;48.984;8.394;2023-07-28T14:00:10;20.60;99.90
38866;DHT22;62686;48.984;8.394;2023-07-28T14:02:40;20.70;99.90
38866;DHT22;62686;48.984;8.394;2023-07-28T14:05:08;20.70;99.90
38866;DHT22;62686;48.984;8.394;2023-07-28T14:07:37;20.80;99.90
38866;DHT22;62686;48.984;8.394;2023-07-28T14:10:12;20.80;99.90
38866;DHT22;62686;48.984;8.394;2023-07-28T14:12:42;20.80;99.90
38866;DHT22;62686;48.984;8.394;2023-07-28T14:15:11;20.60;99.90
38866;DHT22;62686;48.984;8.394;2023-07-28T14:17:40;20.50;99.90
38866;DHT22;62686;48.984;8.394;2023-07-28T14:20:09;20.40;99.90
38866;DHT22;62686;48.984;8.394;2023-07-28T14:22:37;20.30;99.90
38866;DHT22;62686;48.984;8.394;2023-07-28T14:25:07;20.30;99.90
38866;DHT22;62686;48.984;8.394;2023-07-28T14:27:51;20.30;99.90
38866;DHT22;62686;48.984;8.394;2023-07-28T14:30:20;20.30;99.90
38866;DHT22;62686;48.984;8.394;2023-07-28T14:32:48;20.20;99.90
38866;DHT22;62686;48.984;8.394;2023-07-28T14:35:17;20.30;99.90
38866;DHT22;62686;48.984;8.394;2023-07-28T14:37:45;20.30;99.90
38866;DHT22;62686;48.984;8.394;2023-07-28T14:40:13;20.40;99.90
38866;DHT22;62686;48.984;8.394;2023-07-28T14:42:42;20.40;99.90
38866;DHT22;62686;48.984;8.394;2023-07-28T14:45:11;20.30;99.90
38866;DHT22;62686;48.984;8.394;2023-07-28T14:47:40;20.30;99.90
38866;DHT22;62686;48.984;8.394;2023-07-28T14:50:09;20.50;99.90
38866;DHT22;62686;48.984;8.394;2023-07-28T14:52:38;20.60;99.90
38866;DHT22;62686;48.984;8.394;2023-07-28T14:55:07;20.70;99.90
38866;DHT22;62686;48.984;8.394;2023-07-28T14:57:38;20.80;99.90
38866;DHT22;62686;48.984;8.394;2023-07-28T15:00:07;20.80;99.90
38866;DHT22;62686;48.984;8.394;2023-07-28T15:02:38;20.80;99.90
38866;DHT22;62686;48.984;8.394;2023-07-28T15:05:07;20.70;99.90
38866;DHT22;62686;48.984;8.394;2023-07-28T15:07:35;20.70;99.90
38866;DHT22;62686;48.984;8.394;2023-07-28T15:10:04;20.80;99.90
38866;DHT22;62686;48.984;8.394;2023-07-28T15:12:33;20.80;99.90
38866;DHT22;62686;48.984;8.394;2023-07-28T15:15:01;20.90;99.90
38866;DHT22;62686;48.984;8.394;2023-07-28T15:17:30;21.00;99.90
38866;DHT22;62686;48.984;8.394;2023-07-28T15:19:59;21.10;99.90
38866;DHT22;62686;48.984;8.394;2023-07-28T15:22:28;21.10;99.90
38866;DHT22;62686;48.984;8.394;2023-07-28T15:24:56;21.10;99.90
38866;DHT22;62686;48.984;8.394;2023-07-28T15:27:24;21.10;99.90
38866;DHT22;62686;48.984;8.394;2023-07-28T15:29:52;21.00;99.90
38866;DHT22;62686;48.984;8.394;2023-07-28T15:32:21;20.90;99.90
38866;DHT22;62686;48.984;8.394;2023-07-28T15:34:49;20.80;99.90
38866;DHT22;62686;48.984;8.394;2023-07-28T15:37:19;20.80;99.90
38866;DHT22;62686;48.984;8.394;2023-07-28T15:39:47;20.90;99.90
38866;DHT22;62686;48.984;8.394;2023-07-28T15:42:15;20.90;99.90
38866;DHT22;62686;48.984;8.394;2023-07-28T15:44:45;20.90;99.90
38866;DHT22;62686;48.984;8.394;2023-07-28T15:47:13;20.80;99.90
38866;DHT22;62686;48.984;8.394;2023-07-28T15:49:41;20.80;99.90
38866;DHT22;62686;48.984;8.394;2023-07-28T15:52:09;20.80;99.90
38866;DHT22;62686;48.984;8.394;2023-07-28T15:54:39;20.70;99.90
38866;DHT22;62686;48.984;8.394;2023-07-28T15:57:07;20.60;99.90
38866;DHT22;62686;48.984;8.394;2023-07-28T15:59:36;20.50;99.90
38866;DHT22;62686;48.984;8.394;2023-07-28T16:02:05;20.50;99.90
38866;DHT22;62686;48.984;8.394;2023-07-28T16:04:33;20.50;99.90
38866;DHT22;62686;48.984;8.394;2023-07-28T16:07:04;20.60;99.90
38866;DHT22;62686;48.984;8.394;2023-07-28T16:09:33;20.60;99.90
38866;DHT22;62686;48.984;8.394;2023-07-28T16:12:03;20.50;99.90
38866;DHT22;62686;48.984;8.394;2023-07-28T16:14:31;20.50;99.90
38866;DHT22;62686;48.984;8.394;2023-07-28T16:16:59;20.60;99.90
38866;DHT22;62686;48.984;8.394;2023-07-28T16:19:29;20.60;99.90
38866;DHT22;62686;48.984;8.394;2023-07-28T16:21:57;20.60;99.90
38866;DHT22;62686;48.984;8.394;2023-07-28T16:24:26;20.70;99.90
38866;DHT22;62686;48.984;8.394;2023-07-28T16:26:54;20.80;99.90
38866;DHT22;62686;48.984;8.394;2023-07-28T16:29:24;20.90;99.90
38866;DHT22;62686;48.984;8.394;2023-07-28T16:31:52;21.10;99.90
38866;DHT22;62686;48.984;8.394;2023-07-28T16:34:20;21.30;99.90
38866;DHT22;62686;48.984;8.394;2023-07-28T16:36:49;21.60;99.90
38866;DHT22;62686;48.984;8.394;2023-07-28T16:39:17;21.80;99.90
38866;DHT22;62686;48.984;8.394;2023-07-28T16:41:45;21.90;99.90
38866;DHT22;62686;48.984;8.394;2023-07-28T16:44:16;22.20;99.90
38866;DHT22;62686;48.984;8.394;2023-07-28T16:46:46;22.20;99.90
38866;DHT22;62686;48.984;8.394;2023-07-28T16:49:15;22.20;99.90
38866;DHT22;62686;48.984;8.394;2023-07-28T16:51:43;22.20;99.90
38866;DHT22;62686;48.984;8.394;2023-07-28T16:54:11;22.30;99.90
38866;DHT22;62686;48.984;8.394;2023-07-28T16:56:40;22.40;99.90
38866;DHT22;62686;48.984;8.394;2023-07-28T16:59:09;22.40;99.90
38866;DHT22;62686;48.984;8.394;2023-07-28T17:01:37;22.30;99.90
38866;DHT22;62686;48.984;8.394;2023-07-28T17:04:07;22.20;99.90
38866;DHT22;62686;48.984;8.394;2023-07-28T17:06:36;22.00;99.90
38866;DHT22;62686;48.984;8.394;2023-07-28T17:09:07;21.90;99.90
38866;DHT22;62686;48.984;8.394;2023-07-28T17:11:38;21.80;99.90
38866;DHT22;62686;48.984;8.394;2023-07-28T17:14:07;21.70;99.90
38866;DHT22;62686;48.984;8.394;2023-07-28T17:16:35;21.70;99.90
38866;DHT22;62686;48.984;8.394;2023-07-28T17:19:03;21.80;99.90